sensor_id;sensor_type;location;lat;lon;timestamp;pressure;altitude;pressure_sealevel;temperature;humidity
44148;BME280;29810;55.848;37.368;2023-05-16T00:02:38;99757.94;;;13.12;43.52
44148;BME280;29810;55.848;37.368;2023-05-16T00:05:40;99750.19;;;13.09;43.75
44148;BME280;29810;55.848;37.368;2023-05-16T00:08:41;99756.59;;;13.02;43.22
44148;BME280;29810;55.848;37.368;2023-05-16T00:11:43;99750.69;;;12.97;43.49
44148;BME280;29810;55.848;37.368;2023-05-16T00:14:44;99753.69;;;12.86;42.79
44148;BME280;29810;55.848;37.368;2023-05-16T00:17:46;99767.78;;;12.58;46.25
44148;BME280;29810;55.848;37.368;2023-05-16T00:20:47;99768.78;;;12.30;46.34
44148;BME280;29810;55.848;37.368;2023-05-16T00:23:49;99762.63;;;12.06;46.63
44148;BME280;29810;55.848;37.368;2023-05-16T00:26:51;99772.41;;;11.74;50.67
44148;BME280;29810;55.848;37.368;2023-05-16T00:29:52;99774.19;;;11.45;49.88
44148;BME280;29810;55.848;37.368;2023-05-16T00:32:54;99762.03;;;11.44;49.52
44148;BME280;29810;55.848;37.368;2023-05-16T00:35:57;99770.56;;;11.49;49.48
44148;BME280;29810;55.848;37.368;2023-05-16T00:38:58;99763.75;;;11.45;48.86
44148;BME280;29810;55.848;37.368;2023-05-16T00:42:01;99763.63;;;11.48;49.69
44148;BME280;29810;55.848;37.368;2023-05-16T00:45:02;99763.44;;;11.54;49.30
44148;BME280;29810;55.848;37.368;2023-05-16T00:48:04;99763.34;;;11.57;49.40
44148;BME280;29810;55.848;37.368;2023-05-16T00:51:05;99755.44;;;11.60;49.68
44148;BME280;29810;55.848;37.368;2023-05-16T00:54:09;99752.50;;;11.70;50.21
44148;BME280;29810;55.848;37.368;2023-05-16T00:57:10;99755.81;;;11.75;50.69
44148;BME280;29810;55.848;37.368;2023-05-16T01:00:11;99755.81;;;11.75;49.40
44148;BME280;29810;55.848;37.368;2023-05-16T01:03:15;99748.06;;;11.72;49.15
44148;BME280;29810;55.848;37.368;2023-05-16T01:06:16;99743.75;;;11.71;48.90
44148;BME280;29810;55.848;37.368;2023-05-16T01:09:17;99747.06;;;11.76;48.97
44148;BME280;29810;55.848;37.368;2023-05-16T01:15:23;99738.38;;;11.75;49.22
44148;BME280;29810;55.848;37.368;2023-05-16T01:19:28;99736.41;;;11.82;48.90
44148;BME280;29810;55.848;37.368;2023-05-16T01:22:10;99733.47;;;11.91;48.26
44148;BME280;29810;55.848;37.368;2023-05-16T01:28:16;99704.03;;;12.13;47.78
44148;BME280;29810;55.848;37.368;2023-05-16T01:31:18;99728.84;;;12.50;47.72
44148;BME280;29810;55.848;37.368;2023-05-16T01:34:19;99728.75;;;12.77;48.90
44148;BME280;29810;55.848;37.368;2023-05-16T01:37:28;99724.81;;;13.11;47.75
44148;BME280;29810;55.848;37.368;2023-05-16T01:40:46;99722.53;;;13.48;46.36
44148;BME280;29810;55.848;37.368;2023-05-16T01:43:50;99718.97;;;13.91;45.22
44148;BME280;29810;55.848;37.368;2023-05-16T01:46:53;99717.03;;;14.36;44.55
44148;BME280;29810;55.848;37.368;2023-05-16T01:50:00;99725.88;;;14.73;43.45
44148;BME280;29810;55.848;37.368;2023-05-16T01:53:08;99737.28;;;14.33;45.26
44148;BME280;29810;55.848;37.368;2023-05-16T01:56:13;99733.81;;;13.26;48.04
44148;BME280;29810;55.848;37.368;2023-05-16T01:59:16;99739.59;;;12.90;50.85
44148;BME280;29810;55.848;37.368;2023-05-16T02:02:18;99738.41;;;12.75;52.10
44148;BME280;29810;55.848;37.368;2023-05-16T02:05:19;99735.69;;;13.22;49.98
44148;BME280;29810;55.848;37.368;2023-05-16T02:08:21;99735.22;;;13.79;47.57
44148;BME280;29810;55.848;37.368;2023-05-16T02:11:24;99736.47;;;14.51;46.36
44148;BME280;29810;55.848;37.368;2023-05-16T02:14:25;99740.81;;;15.29;45.02
44148;BME280;29810;55.848;37.368;2023-05-16T02:17:27;99738.12;;;15.84;43.93
44148;BME280;29810;55.848;37.368;2023-05-16T02:20:29;99737.41;;;16.16;43.78
44148;BME280;29810;55.848;37.368;2023-05-16T02:23:30;99732.13;;;16.33;43.18
44148;BME280;29810;55.848;37.368;2023-05-16T02:26:31;99738.28;;;16.50;42.91
44148;BME280;29810;55.848;37.368;2023-05-16T02:29:33;99738.50;;;15.77;43.74
44148;BME280;29810;55.848;37.368;2023-05-16T02:32:34;99749.22;;;14.99;45.17
44148;BME280;29810;55.848;37.368;2023-05-16T02:35:36;99750.78;;;14.44;46.20
44148;BME280;29810;55.848;37.368;2023-05-16T02:38:37;99745.16;;;14.12;46.87
44148;BME280;29810;55.848;37.368;2023-05-16T02:41:38;99721.59;;;13.71;47.56
44148;BME280;29810;55.848;37.368;2023-05-16T02:44:39;99743.47;;;13.70;48.35
44148;BME280;29810;55.848;37.368;2023-05-16T02:47:41;99748.81;;;13.67;48.24
44148;BME280;29810;55.848;37.368;2023-05-16T02:50:42;99752.22;;;13.69;47.57
44148;BME280;29810;55.848;37.368;2023-05-16T02:53:43;99745.28;;;13.68;49.53
44148;BME280;29810;55.848;37.368;2023-05-16T02:56:45;99743.88;;;15.19;45.55
44148;BME280;29810;55.848;37.368;2023-05-16T02:59:47;99731.34;;;17.61;43.42
44148;BME280;29810;55.848;37.368;2023-05-16T03:02:48;99720.94;;;19.45;39.91
44148;BME280;29810;55.848;37.368;2023-05-16T03:05:49;99712.50;;;20.95;37.06
44148;BME280;29810;55.848;37.368;2023-05-16T03:08:51;99709.72;;;21.93;34.78
44148;BME280;29810;55.848;37.368;2023-05-16T03:11:53;99700.72;;;22.53;34.60
44148;BME280;29810;55.848;37.368;2023-05-16T03:14:54;99712.34;;;23.29;33.43
44148;BME280;29810;55.848;37.368;2023-05-16T03:17:55;99703.25;;;24.07;32.77
44148;BME280;29810;55.848;37.368;2023-05-16T03:20:57;99698.88;;;25.08;31.57
44148;BME280;29810;55.848;37.368;2023-05-16T03:24:01;99701.66;;;25.95;30.61
44148;BME280;29810;55.848;37.368;2023-05-16T03:27:02;99705.66;;;26.66;29.69
44148;BME280;29810;55.848;37.368;2023-05-16T03:30:04;99705.38;;;27.33;28.67
44148;BME280;29810;55.848;37.368;2023-05-16T03:33:07;99697.78;;;27.83;28.04
44148;BME280;29810;55.848;37.368;2023-05-16T03:36:08;99689.41;;;28.38;27.33
44148;BME280;29810;55.848;37.368;2023-05-16T03:39:10;99688.81;;;28.96;26.99
44148;BME280;29810;55.848;37.368;2023-05-16T03:42:11;99688.41;;;29.50;25.87
44148;BME280;29810;55.848;37.368;2023-05-16T03:45:12;99670.75;;;29.80;25.93
44148;BME280;29810;55.848;37.368;2023-05-16T03:48:14;99695.13;;;30.43;25.43
44148;BME280;29810;55.848;37.368;2023-05-16T03:51:15;99697.06;;;30.97;24.43
44148;BME280;29810;55.848;37.368;2023-05-16T03:54:16;99694.50;;;31.35;22.69
44148;BME280;29810;55.848;37.368;2023-05-16T03:57:17;99693.03;;;31.86;23.61
44148;BME280;29810;55.848;37.368;2023-05-16T04:00:19;99686.13;;;32.36;22.49
44148;BME280;29810;55.848;37.368;2023-05-16T04:03:20;99687.00;;;32.74;22.20
44148;BME280;29810;55.848;37.368;2023-05-16T04:06:27;99687.84;;;33.11;21.59
44148;BME280;29810;55.848;37.368;2023-05-16T04:09:29;99687.91;;;33.61;20.92
44148;BME280;29810;55.848;37.368;2023-05-16T04:12:30;99693.34;;;33.67;20.41
44148;BME280;29810;55.848;37.368;2023-05-16T04:15:32;99688.50;;;34.13;19.97
44148;BME280;29810;55.848;37.368;2023-05-16T04:18:33;99690.25;;;34.76;20.07
44148;BME280;29810;55.848;37.368;2023-05-16T04:21:35;99693.09;;;35.16;19.79
44148;BME280;29810;55.848;37.368;2023-05-16T04:24:36;99685.44;;;35.40;19.36
44148;BME280;29810;55.848;37.368;2023-05-16T04:27:37;99688.75;;;35.75;18.79
44148;BME280;29810;55.848;37.368;2023-05-16T04:30:39;99702.53;;;36.07;18.65
44148;BME280;29810;55.848;37.368;2023-05-16T04:33:40;99696.37;;;36.45;17.46
44148;BME280;29810;55.848;37.368;2023-05-16T04:36:42;99700.69;;;36.60;18.12
44148;BME280;29810;55.848;37.368;2023-05-16T04:39:43;99698.94;;;36.72;17.51
44148;BME280;29810;55.848;37.368;2023-05-16T04:42:44;99687.72;;;37.07;18.07
44148;BME280;29810;55.848;37.368;2023-05-16T04:45:47;99694.28;;;37.25;15.31
44148;BME280;29810;55.848;37.368;2023-05-16T04:48:48;99701.97;;;37.35;16.93
44148;BME280;29810;55.848;37.368;2023-05-16T04:51:50;99700.56;;;37.83;16.45
44148;BME280;29810;55.848;37.368;2023-05-16T04:54:51;99704.28;;;38.07;15.10
44148;BME280;29810;55.848;37.368;2023-05-16T04:57:52;99722.47;;;37.88;15.71
44148;BME280;29810;55.848;37.368;2023-05-16T05:00:53;99722.03;;;38.09;15.22
44148;BME280;29810;55.848;37.368;2023-05-16T05:03:55;99725.38;;;37.93;15.14
44148;BME280;29810;55.848;37.368;2023-05-16T05:06:57;99718.81;;;38.56;14.50
44148;BME280;29810;55.848;37.368;2023-05-16T05:10:00;99721.09;;;38.78;13.14
44148;BME280;29810;55.848;37.368;2023-05-16T05:13:01;99721.66;;;38.80;14.85
44148;BME280;29810;55.848;37.368;2023-05-16T05:16:04;99723.47;;;38.86;14.33
44148;BME280;29810;55.848;37.368;2023-05-16T05:19:06;99728.56;;;38.08;13.84
44148;BME280;29810;55.848;37.368;2023-05-16T05:22:09;99719.22;;;37.79;14.19
44148;BME280;29810;55.848;37.368;2023-05-16T05:25:10;99725.47;;;37.80;13.42
44148;BME280;29810;55.848;37.368;2023-05-16T05:28:11;99729.56;;;38.33;13.07
44148;BME280;29810;55.848;37.368;2023-05-16T05:31:13;99730.75;;;38.92;13.95
44148;BME280;29810;55.848;37.368;2023-05-16T05:34:14;99737.88;;;38.75;13.27
44148;BME280;29810;55.848;37.368;2023-05-16T05:37:16;99739.16;;;38.54;13.35
44148;BME280;29810;55.848;37.368;2023-05-16T05:40:17;99735.63;;;38.72;12.89
44148;BME280;29810;55.848;37.368;2023-05-16T05:43:18;99739.28;;;39.27;12.53
44148;BME280;29810;55.848;37.368;2023-05-16T05:46:19;99739.44;;;39.01;12.20
44148;BME280;29810;55.848;37.368;2023-05-16T05:49:21;99749.84;;;39.35;12.05
44148;BME280;29810;55.848;37.368;2023-05-16T05:52:23;99743.06;;;39.25;12.36
44148;BME280;29810;55.848;37.368;2023-05-16T05:55:24;99742.03;;;39.38;12.76
44148;BME280;29810;55.848;37.368;2023-05-16T05:58:26;99748.09;;;39.10;12.73
44148;BME280;29810;55.848;37.368;2023-05-16T06:01:29;99745.78;;;38.02;13.29
44148;BME280;29810;55.848;37.368;2023-05-16T06:04:31;99751.00;;;36.69;13.02
44148;BME280;29810;55.848;37.368;2023-05-16T06:07:32;99755.91;;;35.40;14.17
44148;BME280;29810;55.848;37.368;2023-05-16T06:10:34;99767.13;;;33.83;14.79
44148;BME280;29810;55.848;37.368;2023-05-16T06:13:36;99770.28;;;33.43;14.95
44148;BME280;29810;55.848;37.368;2023-05-16T06:16:39;99768.88;;;33.76;15.42
44148;BME280;29810;55.848;37.368;2023-05-16T06:19:40;99772.91;;;33.58;15.04
44148;BME280;29810;55.848;37.368;2023-05-16T06:22:43;99776.91;;;32.89;15.74
44148;BME280;29810;55.848;37.368;2023-05-16T06:25:44;99784.97;;;31.91;15.64
44148;BME280;29810;55.848;37.368;2023-05-16T06:28:47;99792.34;;;28.72;18.27
44148;BME280;29810;55.848;37.368;2023-05-16T06:31:48;99802.09;;;26.55;20.43
44148;BME280;29810;55.848;37.368;2023-05-16T06:34:49;99798.59;;;24.86;21.67
44148;BME280;29810;55.848;37.368;2023-05-16T06:37:50;99805.84;;;23.90;23.06
44148;BME280;29810;55.848;37.368;2023-05-16T06:40:52;99806.38;;;23.40;23.41
44148;BME280;29810;55.848;37.368;2023-05-16T06:43:55;99813.41;;;22.61;24.34
44148;BME280;29810;55.848;37.368;2023-05-16T06:46:56;99814.00;;;22.07;24.58
44148;BME280;29810;55.848;37.368;2023-05-16T06:49:58;99803.13;;;21.74;24.86
44148;BME280;29810;55.848;37.368;2023-05-16T06:53:00;99806.47;;;21.65;25.10
44148;BME280;29810;55.848;37.368;2023-05-16T06:56:01;99807.81;;;21.09;25.88
44148;BME280;29810;55.848;37.368;2023-05-16T06:59:03;99782.50;;;20.54;27.02
44148;BME280;29810;55.848;37.368;2023-05-16T07:02:04;99806.16;;;20.70;26.82
44148;BME280;29810;55.848;37.368;2023-05-16T07:05:06;99824.13;;;20.39;26.96
44148;BME280;29810;55.848;37.368;2023-05-16T07:08:08;99820.09;;;20.33;27.63
44148;BME280;29810;55.848;37.368;2023-05-16T07:11:10;99816.91;;;20.28;27.56
44148;BME280;29810;55.848;37.368;2023-05-16T07:14:12;99821.38;;;20.27;27.04
44148;BME280;29810;55.848;37.368;2023-05-16T07:17:14;99826.25;;;20.21;27.05
44148;BME280;29810;55.848;37.368;2023-05-16T07:20:15;99819.66;;;20.13;27.42
44148;BME280;29810;55.848;37.368;2023-05-16T07:23:16;99815.53;;;20.09;27.46
44148;BME280;29810;55.848;37.368;2023-05-16T07:26:18;99816.78;;;20.04;27.67
44148;BME280;29810;55.848;37.368;2023-05-16T07:29:22;99820.06;;;20.07;27.35
44148;BME280;29810;55.848;37.368;2023-05-16T07:32:23;99814.56;;;20.10;27.09
44148;BME280;29810;55.848;37.368;2023-05-16T07:35:24;99815.53;;;20.09;27.17
44148;BME280;29810;55.848;37.368;2023-05-16T07:38:25;99811.31;;;20.19;27.23
44148;BME280;29810;55.848;37.368;2023-05-16T07:41:28;99807.19;;;20.28;27.13
44148;BME280;29810;55.848;37.368;2023-05-16T07:44:29;99809.81;;;20.41;27.06
44148;BME280;29810;55.848;37.368;2023-05-16T07:47:31;99817.56;;;20.44;27.00
44148;BME280;29810;55.848;37.368;2023-05-16T07:50:32;99806.56;;;20.38;27.11
44148;BME280;29810;55.848;37.368;2023-05-16T07:53:34;99808.69;;;20.45;27.03
44148;BME280;29810;55.848;37.368;2023-05-16T07:56:35;99813.44;;;20.40;27.15
44148;BME280;29810;55.848;37.368;2023-05-16T07:59:37;99814.16;;;20.16;26.79
44148;BME280;29810;55.848;37.368;2023-05-16T08:02:38;99803.53;;;19.91;26.70
44148;BME280;29810;55.848;37.368;2023-05-16T08:05:40;99816.03;;;19.74;27.00
44148;BME280;29810;55.848;37.368;2023-05-16T08:08:41;99814.12;;;19.76;27.29
44148;BME280;29810;55.848;37.368;2023-05-16T08:11:42;99802.97;;;19.85;27.30
44148;BME280;29810;55.848;37.368;2023-05-16T08:14:45;99802.94;;;20.13;26.92
44148;BME280;29810;55.848;37.368;2023-05-16T08:17:48;99806.53;;;20.12;26.85
44148;BME280;29810;55.848;37.368;2023-05-16T08:20:49;99802.72;;;20.16;26.73
44148;BME280;29810;55.848;37.368;2023-05-16T08:23:51;99798.47;;;20.13;26.57
44148;BME280;29810;55.848;37.368;2023-05-16T08:26:52;99805.88;;;20.08;26.70
44148;BME280;29810;55.848;37.368;2023-05-16T08:29:53;99795.09;;;20.11;26.84
44148;BME280;29810;55.848;37.368;2023-05-16T08:32:55;99802.41;;;20.21;26.69
44148;BME280;29810;55.848;37.368;2023-05-16T08:35:57;99799.34;;;20.27;26.69
44148;BME280;29810;55.848;37.368;2023-05-16T08:38:58;99798.28;;;20.42;26.53
44148;BME280;29810;55.848;37.368;2023-05-16T08:41:59;99796.81;;;20.51;26.39
44148;BME280;29810;55.848;37.368;2023-05-16T08:45:01;99789.16;;;20.46;26.28
44148;BME280;29810;55.848;37.368;2023-05-16T08:48:04;99793.94;;;20.41;26.08
44148;BME280;29810;55.848;37.368;2023-05-16T08:51:05;99787.59;;;20.57;26.16
44148;BME280;29810;55.848;37.368;2023-05-16T08:54:10;99780.53;;;20.70;26.09
44148;BME280;29810;55.848;37.368;2023-05-16T08:57:13;99774.56;;;20.66;26.23
44148;BME280;29810;55.848;37.368;2023-05-16T09:00:16;99774.56;;;20.54;26.17
44148;BME280;29810;55.848;37.368;2023-05-16T09:03:17;99782.50;;;20.54;26.16
44148;BME280;29810;55.848;37.368;2023-05-16T09:06:21;99776.56;;;20.50;26.27
44148;BME280;29810;55.848;37.368;2023-05-16T09:09:22;99780.41;;;20.46;26.19
44148;BME280;29810;55.848;37.368;2023-05-16T09:12:25;99778.69;;;20.45;26.32
44148;BME280;29810;55.848;37.368;2023-05-16T09:15:29;99767.78;;;20.49;26.31
44148;BME280;29810;55.848;37.368;2023-05-16T09:18:32;99773.50;;;20.56;26.28
44148;BME280;29810;55.848;37.368;2023-05-16T09:21:33;99768.84;;;20.60;26.26
44148;BME280;29810;55.848;37.368;2023-05-16T09:24:39;99768.41;;;20.66;26.18
44148;BME280;29810;55.848;37.368;2023-05-16T09:27:40;99767.34;;;20.68;26.17
44148;BME280;29810;55.848;37.368;2023-05-16T09:30:43;99775.22;;;20.70;26.09
44148;BME280;29810;55.848;37.368;2023-05-16T09:33:45;99772.59;;;20.70;25.77
44148;BME280;29810;55.848;37.368;2023-05-16T09:36:53;99775.28;;;20.56;25.85
44148;BME280;29810;55.848;37.368;2023-05-16T09:39:54;99763.97;;;20.54;25.93
44148;BME280;29810;55.848;37.368;2023-05-16T09:43:02;99765.44;;;20.58;25.77
44148;BME280;29810;55.848;37.368;2023-05-16T09:46:06;99769.56;;;20.49;26.12
44148;BME280;29810;55.848;37.368;2023-05-16T09:49:10;99763.34;;;20.50;26.12
44148;BME280;29810;55.848;37.368;2023-05-16T09:52:12;99745.56;;;20.52;25.99
44148;BME280;29810;55.848;37.368;2023-05-16T09:55:14;99750.97;;;20.50;25.77
44148;BME280;29810;55.848;37.368;2023-05-16T09:58:15;99750.63;;;20.42;25.96
44148;BME280;29810;55.848;37.368;2023-05-16T10:01:18;99746.09;;;20.44;26.06
44148;BME280;29810;55.848;37.368;2023-05-16T10:04:20;99740.66;;;20.46;25.73
44148;BME280;29810;55.848;37.368;2023-05-16T10:07:21;99735.91;;;20.38;25.70
44148;BME280;29810;55.848;37.368;2023-05-16T10:10:24;99736.56;;;20.29;25.71
44148;BME280;29810;55.848;37.368;2023-05-16T10:13:31;99733.91;;;20.16;26.06
44148;BME280;29810;55.848;37.368;2023-05-16T10:16:34;99732.44;;;20.25;26.08
44148;BME280;29810;55.848;37.368;2023-05-16T10:19:36;99726.06;;;20.27;25.97
44148;BME280;29810;55.848;37.368;2023-05-16T10:22:41;99731.56;;;20.37;25.96
44148;BME280;29810;55.848;37.368;2023-05-16T10:25:42;99720.31;;;20.46;25.96
44148;BME280;29810;55.848;37.368;2023-05-16T10:28:44;99725.72;;;20.45;26.19
44148;BME280;29810;55.848;37.368;2023-05-16T10:31:47;99718.44;;;20.48;26.41
44148;BME280;29810;55.848;37.368;2023-05-16T10:34:48;99708.00;;;20.58;26.58
44148;BME280;29810;55.848;37.368;2023-05-16T10:37:49;99722.97;;;20.72;26.44
44148;BME280;29810;55.848;37.368;2023-05-16T10:40:51;99718.00;;;20.67;26.79
44148;BME280;29810;55.848;37.368;2023-05-16T10:43:56;99710.87;;;20.81;26.64
44148;BME280;29810;55.848;37.368;2023-05-16T10:46:58;99696.84;;;20.92;26.47
44148;BME280;29810;55.848;37.368;2023-05-16T10:50:00;99699.66;;;20.77;26.46
44148;BME280;29810;55.848;37.368;2023-05-16T10:53:18;99700.28;;;20.68;26.51
44148;BME280;29810;55.848;37.368;2023-05-16T10:56:26;99702.72;;;20.58;26.39
44148;BME280;29810;55.848;37.368;2023-05-16T10:59:28;99690.53;;;20.56;26.17
44148;BME280;29810;55.848;37.368;2023-05-16T11:02:31;99690.66;;;20.54;26.31
44148;BME280;29810;55.848;37.368;2023-05-16T11:05:34;99692.56;;;20.65;26.17
44148;BME280;29810;55.848;37.368;2023-05-16T11:08:35;99678.25;;;20.67;26.23
44148;BME280;29810;55.848;37.368;2023-05-16T11:14:53;99682.72;;;20.54;26.13
44148;BME280;29810;55.848;37.368;2023-05-16T11:21:06;99682.28;;;20.60;26.02
44148;BME280;29810;55.848;37.368;2023-05-16T11:27:28;99678.19;;;20.93;25.76
44148;BME280;29810;55.848;37.368;2023-05-16T11:30:30;99679.16;;;20.92;25.33
44148;BME280;29810;55.848;37.368;2023-05-16T11:33:31;99678.81;;;20.97;25.59
44148;BME280;29810;55.848;37.368;2023-05-16T11:36:35;99681.47;;;20.97;25.40
44148;BME280;29810;55.848;37.368;2023-05-16T11:39:38;99680.16;;;21.02;25.61
44148;BME280;29810;55.848;37.368;2023-05-16T11:42:42;99671.88;;;21.07;25.50
44148;BME280;29810;55.848;37.368;2023-05-16T11:45:44;99670.03;;;20.96;25.42
44148;BME280;29810;55.848;37.368;2023-05-16T11:48:46;99675.41;;;20.95;25.64
44148;BME280;29810;55.848;37.368;2023-05-16T11:51:47;99666.75;;;20.93;25.69
44148;BME280;29810;55.848;37.368;2023-05-16T11:54:49;99680.78;;;21.06;25.74
44148;BME280;29810;55.848;37.368;2023-05-16T11:57:51;99662.75;;;21.11;25.73
44148;BME280;29810;55.848;37.368;2023-05-16T12:00:53;99667.97;;;21.24;25.64
44148;BME280;29810;55.848;37.368;2023-05-16T12:03:55;99671.59;;;21.23;25.73
44148;BME280;29810;55.848;37.368;2023-05-16T12:06:58;99671.19;;;21.16;25.69
44148;BME280;29810;55.848;37.368;2023-05-16T12:10:07;99666.34;;;21.10;25.80
44148;BME280;29810;55.848;37.368;2023-05-16T12:13:09;99660.88;;;21.00;26.12
44148;BME280;29810;55.848;37.368;2023-05-16T12:16:11;99673.75;;;20.94;26.31
44148;BME280;29810;55.848;37.368;2023-05-16T12:19:13;99664.72;;;20.96;26.34
44148;BME280;29810;55.848;37.368;2023-05-16T12:22:24;99658.16;;;20.89;26.60
44148;BME280;29810;55.848;37.368;2023-05-16T12:25:29;99648.91;;;20.95;26.76
44148;BME280;29810;55.848;37.368;2023-05-16T12:28:32;99646.50;;;21.16;26.62
44148;BME280;29810;55.848;37.368;2023-05-16T12:31:35;99648.78;;;21.21;26.72
44148;BME280;29810;55.848;37.368;2023-05-16T12:34:37;99655.22;;;21.29;26.64
44148;BME280;29810;55.848;37.368;2023-05-16T12:37:38;99651.06;;;21.38;26.72
44148;BME280;29810;55.848;37.368;2023-05-16T12:40:40;99658.81;;;21.53;26.63
44148;BME280;29810;55.848;37.368;2023-05-16T12:43:42;99650.91;;;21.64;26.56
44148;BME280;29810;55.848;37.368;2023-05-16T12:46:44;99653.34;;;21.67;26.60
44148;BME280;29810;55.848;37.368;2023-05-16T12:49:46;99643.69;;;21.66;26.55
44148;BME280;29810;55.848;37.368;2023-05-16T12:52:52;99649.56;;;21.58;26.62
44148;BME280;29810;55.848;37.368;2023-05-16T12:55:53;99641.91;;;21.42;26.72
44148;BME280;29810;55.848;37.368;2023-05-16T12:58:54;99642.84;;;21.41;26.82
44148;BME280;29810;55.848;37.368;2023-05-16T13:01:56;99637.88;;;21.37;26.86
44148;BME280;29810;55.848;37.368;2023-05-16T13:04:58;99637.06;;;21.36;26.88
44148;BME280;29810;55.848;37.368;2023-05-16T13:07:59;99627.28;;;21.37;26.83
44148;BME280;29810;55.848;37.368;2023-05-16T13:11:02;99621.97;;;21.37;26.82
44148;BME280;29810;55.848;37.368;2023-05-16T13:14:03;99629.75;;;21.15;27.13
44148;BME280;29810;55.848;37.368;2023-05-16T13:17:05;99634.81;;;21.18;27.09
44148;BME280;29810;55.848;37.368;2023-05-16T13:20:06;99629.44;;;21.31;26.98
44148;BME280;29810;55.848;37.368;2023-05-16T13:23:15;99633.19;;;21.40;27.02
44148;BME280;29810;55.848;37.368;2023-05-16T13:26:16;99625.75;;;21.45;27.01
44148;BME280;29810;55.848;37.368;2023-05-16T13:29:17;99630.91;;;21.36;27.06
44148;BME280;29810;55.848;37.368;2023-05-16T13:32:18;99632.69;;;21.35;27.10
44148;BME280;29810;55.848;37.368;2023-05-16T13:35:20;99636.03;;;21.50;26.99
44148;BME280;29810;55.848;37.368;2023-05-16T13:38:21;99631.12;;;21.57;27.01
44148;BME280;29810;55.848;37.368;2023-05-16T13:41:23;99629.72;;;21.51;27.09
44148;BME280;29810;55.848;37.368;2023-05-16T13:44:25;99602.94;;;21.43;27.13
44148;BME280;29810;55.848;37.368;2023-05-16T13:47:27;99621.19;;;21.47;27.00
44148;BME280;29810;55.848;37.368;2023-05-16T13:50:28;99629.13;;;21.47;27.08
44148;BME280;29810;55.848;37.368;2023-05-16T13:53:30;99623.34;;;21.42;27.10
44148;BME280;29810;55.848;37.368;2023-05-16T13:56:31;99618.16;;;21.41;27.18
44148;BME280;29810;55.848;37.368;2023-05-16T13:59:32;99613.69;;;21.41;27.23
44148;BME280;29810;55.848;37.368;2023-05-16T14:02:34;99615.00;;;21.47;27.24
44148;BME280;29810;55.848;37.368;2023-05-16T14:05:35;99600.53;;;21.51;27.22
44148;BME280;29810;55.848;37.368;2023-05-16T14:08:36;99607.75;;;21.62;27.16
44148;BME280;29810;55.848;37.368;2023-05-16T14:11:38;99597.13;;;21.62;27.13
44148;BME280;29810;55.848;37.368;2023-05-16T14:14:39;99609.22;;;21.42;27.32
44148;BME280;29810;55.848;37.368;2023-05-16T14:17:40;99610.88;;;21.31;27.36
44148;BME280;29810;55.848;37.368;2023-05-16T14:20:42;99610.03;;;21.31;27.32
44148;BME280;29810;55.848;37.368;2023-05-16T14:23:43;99600.97;;;21.22;27.35
44148;BME280;29810;55.848;37.368;2023-05-16T14:26:45;99605.44;;;21.22;27.41
44148;BME280;29810;55.848;37.368;2023-05-16T14:29:46;99599.78;;;21.26;27.38
44148;BME280;29810;55.848;37.368;2023-05-16T14:32:48;99607.56;;;21.16;27.53
44148;BME280;29810;55.848;37.368;2023-05-16T14:35:53;99608.78;;;21.12;27.61
44148;BME280;29810;55.848;37.368;2023-05-16T14:38:55;99602.28;;;21.16;27.62
44148;BME280;29810;55.848;37.368;2023-05-16T14:41:56;99600.56;;;21.15;27.59
44148;BME280;29810;55.848;37.368;2023-05-16T14:44:58;99600.56;;;21.15;27.63
44148;BME280;29810;55.848;37.368;2023-05-16T14:48:00;99607.56;;;21.16;27.65
44148;BME280;29810;55.848;37.368;2023-05-16T14:51:02;99606.38;;;21.09;27.77
44148;BME280;29810;55.848;37.368;2023-05-16T14:54:06;99607.44;;;21.07;27.94
44148;BME280;29810;55.848;37.368;2023-05-16T14:57:08;99608.28;;;21.07;27.93
44148;BME280;29810;55.848;37.368;2023-05-16T15:00:13;99604.87;;;21.05;27.94
44148;BME280;29810;55.848;37.368;2023-05-16T15:03:15;99609.97;;;21.08;28.17
44148;BME280;29810;55.848;37.368;2023-05-16T15:06:19;99604.03;;;21.05;27.93
44148;BME280;29810;55.848;37.368;2023-05-16T15:09:21;99606.03;;;20.90;28.33
44148;BME280;29810;55.848;37.368;2023-05-16T15:12:23;99608.69;;;20.90;28.31
44148;BME280;29810;55.848;37.368;2023-05-16T15:15:24;99603.84;;;20.83;28.53
44148;BME280;29810;55.848;37.368;2023-05-16T15:18:28;99603.53;;;20.75;28.72
44148;BME280;29810;55.848;37.368;2023-05-16T15:21:29;99596.56;;;20.74;28.65
44148;BME280;29810;55.848;37.368;2023-05-16T15:24:32;99586.50;;;20.66;28.61
44148;BME280;29810;55.848;37.368;2023-05-16T15:27:34;99593.16;;;20.72;28.61
44148;BME280;29810;55.848;37.368;2023-05-16T15:30:35;99592.84;;;20.64;28.86
44148;BME280;29810;55.848;37.368;2023-05-16T15:33:36;99602.00;;;20.60;29.14
44148;BME280;29810;55.848;37.368;2023-05-16T15:36:38;99600.59;;;20.54;29.03
44148;BME280;29810;55.848;37.368;2023-05-16T15:39:39;99603.38;;;20.52;29.24
44148;BME280;29810;55.848;37.368;2023-05-16T15:42:42;99595.66;;;20.49;29.42
44148;BME280;29810;55.848;37.368;2023-05-16T15:45:44;99593.69;;;20.40;29.52
44148;BME280;29810;55.848;37.368;2023-05-16T15:48:46;99591.69;;;20.31;29.66
44148;BME280;29810;55.848;37.368;2023-05-16T15:51:47;99597.13;;;20.16;30.50
44148;BME280;29810;55.848;37.368;2023-05-16T15:54:48;99592.69;;;20.04;30.82
44148;BME280;29810;55.848;37.368;2023-05-16T15:57:49;99595.34;;;20.04;30.60
44148;BME280;29810;55.848;37.368;2023-05-16T16:00:51;99600.09;;;19.99;30.76
44148;BME280;29810;55.848;37.368;2023-05-16T16:03:54;99592.16;;;19.99;30.46
44148;BME280;29810;55.848;37.368;2023-05-16T16:06:55;99597.78;;;19.94;30.42
44148;BME280;29810;55.848;37.368;2023-05-16T16:09:57;99599.38;;;19.84;30.77